createdAt,value
2019-03-19T00:02:09.865Z,101007.31
2019-03-19T00:04:39.445Z,101007.80
2019-03-19T00:07:08.901Z,101000.88
2019-03-19T00:09:38.381Z,101003.89
2019-03-19T00:12:07.822Z,101005.92
2019-03-19T00:14:37.292Z,101015.39
2019-03-19T00:17:06.765Z,101012.05
2019-03-19T00:19:36.218Z,101015.89
2019-03-19T00:22:05.758Z,101011.35
2019-03-19T00:24:35.231Z,101009.82
2019-03-19T00:27:05.374Z,101023.67
2019-03-19T00:29:34.854Z,101021.63
2019-03-19T00:32:04.305Z,101020.09
2019-03-19T00:34:33.936Z,101018.55
2019-03-19T00:37:03.561Z,101022.61
2019-03-19T00:39:33.025Z,101026.31
2019-03-19T00:42:02.212Z,101025.60
2019-03-19T00:44:31.828Z,101025.16
2019-03-19T00:47:01.321Z,101020.13
2019-03-19T00:49:30.976Z,101019.29
2019-03-19T00:52:00.597Z,101018.68
2019-03-19T00:54:30.072Z,101019.06
2019-03-19T00:56:59.649Z,101024.42
2019-03-19T00:59:29.124Z,101026.41
2019-03-19T01:01:58.582Z,101028.27
2019-03-19T01:07:43.973Z,101031.44
2019-03-19T01:10:17.340Z,101036.03
2019-03-19T01:12:46.305Z,101031.60
2019-03-19T01:15:15.942Z,101043.50
2019-03-19T01:17:45.454Z,101045.34
2019-03-19T01:20:16.675Z,101044.63
2019-03-19T01:22:46.221Z,101042.91
2019-03-19T01:25:16.420Z,101043.80
2019-03-19T01:27:45.934Z,101045.00
2019-03-19T01:30:16.860Z,101047.67
2019-03-19T01:32:46.413Z,101055.88
2019-03-19T01:35:17.636Z,101056.59
2019-03-19T01:37:47.096Z,101052.87
2019-03-19T01:40:16.964Z,101054.91
2019-03-19T01:42:46.421Z,101054.78
2019-03-19T01:45:16.304Z,101055.52
2019-03-19T01:47:45.766Z,101058.02
2019-03-19T01:50:16.160Z,101049.25
2019-03-19T01:52:45.834Z,101052.02
2019-03-19T01:55:16.107Z,101051.06
2019-03-19T01:57:45.657Z,101051.78
2019-03-19T02:00:16.659Z,101059.00
2019-03-19T02:02:46.205Z,101051.52
2019-03-19T02:05:36.524Z,101051.39
2019-03-19T02:08:06.155Z,101056.69
2019-03-19T02:10:35.662Z,101053.45
2019-03-19T02:13:05.300Z,101053.46
2019-03-19T02:15:34.888Z,101058.98
2019-03-19T02:18:04.528Z,101060.91
2019-03-19T02:20:34.132Z,101066.22
2019-03-19T02:23:04.787Z,101064.64
2019-03-19T02:25:34.296Z,101061.74
2019-03-19T02:28:04.105Z,101062.25
2019-03-19T02:30:33.557Z,101055.98
2019-03-19T02:33:03.164Z,101060.64
2019-03-19T02:35:32.623Z,101066.66
2019-03-19T02:38:02.135Z,101074.15
2019-03-19T02:40:31.708Z,101075.09
2019-03-19T02:43:01.339Z,101077.24
2019-03-19T02:45:30.821Z,101074.30
2019-03-19T02:48:00.486Z,101084.61
2019-03-19T02:50:30.099Z,101094.78
2019-03-19T02:52:59.750Z,101094.78
2019-03-19T02:58:26.669Z,101093.83
2019-03-19T03:00:56.228Z,101095.58
2019-03-19T03:03:25.716Z,101099.55
2019-03-19T03:05:55.334Z,101088.05
2019-03-19T03:08:24.810Z,101088.57
2019-03-19T03:10:56.595Z,101094.83
2019-03-19T03:13:25.845Z,101092.91
2019-03-19T03:15:55.344Z,101092.19
2019-03-19T03:18:24.854Z,101097.55
2019-03-19T03:20:55.981Z,101110.48
2019-03-19T03:23:25.256Z,101117.39
2019-03-19T03:25:54.599Z,101118.48
2019-03-19T03:28:24.163Z,101120.64
2019-03-19T03:30:53.631Z,101124.38
2019-03-19T03:33:23.028Z,101125.14
2019-03-19T03:35:52.540Z,101122.69
2019-03-19T03:38:22.120Z,101127.64
2019-03-19T03:41:12.881Z,101123.45
2019-03-19T03:43:42.473Z,101133.84
2019-03-19T03:46:12.520Z,101134.55
2019-03-19T03:48:42.246Z,101138.34
2019-03-19T03:51:12.125Z,101142.23
2019-03-19T03:53:41.692Z,101141.92
2019-03-19T03:56:11.695Z,101161.67
2019-03-19T03:58:41.502Z,101161.67
2019-03-19T04:01:11.244Z,101158.95
2019-03-19T04:03:40.836Z,101163.50
2019-03-19T04:06:11.055Z,101162.04
2019-03-19T04:08:40.560Z,101165.75
2019-03-19T04:11:10.562Z,101176.53
2019-03-19T04:13:40.167Z,101175.38
2019-03-19T04:16:09.784Z,101177.96
2019-03-19T04:18:39.204Z,101168.72
2019-03-19T04:21:08.848Z,101182.70
2019-03-19T04:23:38.402Z,101187.89
2019-03-19T04:26:07.879Z,101191.78
2019-03-19T04:28:37.359Z,101191.01
2019-03-19T04:31:06.825Z,101196.22
2019-03-19T04:33:36.372Z,101195.23
2019-03-19T04:36:05.909Z,101193.33
2019-03-19T04:38:35.396Z,101196.78
2019-03-19T04:41:04.922Z,101202.14
2019-03-19T04:43:34.547Z,101198.62
2019-03-19T04:46:04.068Z,101207.42
2019-03-19T04:48:33.625Z,101214.50
2019-03-19T04:51:23.940Z,101207.05
2019-03-19T04:53:53.508Z,101210.42
2019-03-19T04:56:22.391Z,101219.73
2019-03-19T04:58:52.009Z,101224.06
2019-03-19T05:01:21.639Z,101223.15
2019-03-19T05:03:51.355Z,101226.93
2019-03-19T05:06:20.888Z,101226.93
2019-03-19T05:08:50.321Z,101227.66
2019-03-19T05:11:19.820Z,101222.12
2019-03-19T05:13:49.296Z,101228.33
2019-03-19T05:16:18.791Z,101242.73
2019-03-19T05:18:48.294Z,101241.28
2019-03-19T05:21:17.741Z,101247.73
2019-03-19T05:23:47.252Z,101248.57
2019-03-19T05:26:16.762Z,101246.56
2019-03-19T05:28:46.319Z,101249.39
2019-03-19T05:31:15.777Z,101243.08
2019-03-19T05:33:45.388Z,101252.37
2019-03-19T05:36:16.366Z,101257.89
2019-03-19T05:38:45.869Z,101267.97
2019-03-19T05:41:16.664Z,101266.41
2019-03-19T05:43:46.327Z,101270.66
2019-03-19T05:46:15.885Z,101277.20
2019-03-19T05:48:45.446Z,101281.06
2019-03-19T05:51:14.898Z,101279.16
2019-03-19T05:53:44.497Z,101279.04
2019-03-19T05:56:13.941Z,101279.49
2019-03-19T05:58:43.603Z,101285.84
2019-03-19T06:01:13.032Z,101286.05
2019-03-19T06:03:42.588Z,101276.75
2019-03-19T06:06:12.331Z,101276.72
2019-03-19T06:08:41.898Z,101286.52
2019-03-19T06:11:11.507Z,101278.53
2019-03-19T06:13:41.127Z,101277.37
2019-03-19T06:16:10.818Z,101271.84
2019-03-19T06:18:40.373Z,101281.05
2019-03-19T06:21:10.012Z,101282.88
2019-03-19T06:23:39.576Z,101280.95
2019-03-19T06:26:09.225Z,101279.08
2019-03-19T06:28:38.727Z,101285.66
2019-03-19T06:31:08.621Z,101282.88
2019-03-19T06:33:38.067Z,101289.63
2019-03-19T06:36:08.033Z,101303.47
2019-03-19T06:38:37.578Z,101294.52
2019-03-19T06:41:07.522Z,101305.20
2019-03-19T06:43:36.973Z,101305.20
2019-03-19T06:46:06.531Z,101296.98
2019-03-19T06:48:35.994Z,101290.76
2019-03-19T06:51:05.614Z,101300.39
2019-03-19T06:53:35.207Z,101299.48
2019-03-19T06:56:04.824Z,101301.16
2019-03-19T06:58:34.382Z,101312.20
2019-03-19T07:01:04.057Z,101306.75
2019-03-19T07:03:33.461Z,101300.95
2019-03-19T07:06:03.182Z,101311.82
2019-03-19T07:08:32.745Z,101312.95
2019-03-19T07:11:02.218Z,101313.05
2019-03-19T07:13:31.805Z,101313.89
2019-03-19T07:16:41.330Z,101317.52
2019-03-19T07:19:11.144Z,101318.15
2019-03-19T07:21:40.838Z,101316.38
2019-03-19T07:24:10.471Z,101313.41
2019-03-19T07:26:40.123Z,101317.91
2019-03-19T07:32:18.725Z,101324.20
2019-03-19T07:34:48.197Z,101324.43
2019-03-19T07:37:17.682Z,101320.50
2019-03-19T07:39:47.298Z,101314.98
2019-03-19T07:42:16.797Z,101321.41
2019-03-19T07:44:46.256Z,101322.25
2019-03-19T07:47:15.755Z,101337.30
2019-03-19T07:49:45.350Z,101331.91
2019-03-19T07:52:14.830Z,101324.33
2019-03-19T07:54:44.307Z,101313.86
2019-03-19T07:57:13.781Z,101321.91
2019-03-19T07:59:43.315Z,101325.83
2019-03-19T08:02:12.929Z,101326.47
2019-03-19T08:04:42.458Z,101339.63
2019-03-19T08:07:12.105Z,101347.98
2019-03-19T08:09:41.871Z,101340.92
2019-03-19T08:12:11.702Z,101343.55
2019-03-19T08:14:42.910Z,101355.27
2019-03-19T08:17:14.152Z,101359.81
2019-03-19T08:19:43.619Z,101366.99
2019-03-19T08:22:14.176Z,101376.05
2019-03-19T08:24:43.858Z,101368.58
2019-03-19T08:27:13.365Z,101373.44
2019-03-19T08:29:42.829Z,101367.81
2019-03-19T08:32:12.445Z,101379.90
2019-03-19T08:34:41.715Z,101382.83
2019-03-19T08:37:11.623Z,101384.39
2019-03-19T08:39:41.213Z,101384.72
2019-03-19T08:42:11.095Z,101403.08
2019-03-19T08:44:40.650Z,101398.21
2019-03-19T08:47:10.458Z,101403.08
2019-03-19T08:49:40.036Z,101405.09
2019-03-19T08:52:09.964Z,101408.16
2019-03-19T08:54:39.594Z,101410.91
2019-03-19T08:57:09.404Z,101412.28
2019-03-19T08:59:38.830Z,101418.83
2019-03-19T09:02:08.747Z,101427.21
2019-03-19T09:04:38.197Z,101420.47
2019-03-19T09:07:07.655Z,101418.49
2019-03-19T09:09:37.145Z,101411.72
2019-03-19T09:12:06.660Z,101421.88
2019-03-19T09:14:36.239Z,101425.98
2019-03-19T09:17:05.707Z,101428.05
2019-03-19T09:19:35.309Z,101423.92
2019-03-19T09:22:05.495Z,101432.55
2019-03-19T09:24:35.046Z,101428.80
2019-03-19T09:27:04.582Z,101433.06
2019-03-19T09:29:34.145Z,101435.84
2019-03-19T09:32:03.664Z,101446.20
2019-03-19T09:34:33.001Z,101431.28
2019-03-19T09:37:02.456Z,101433.47
2019-03-19T09:39:32.111Z,101435.58
2019-03-19T09:42:02.486Z,101439.03
2019-03-19T09:44:32.039Z,101437.11
2019-03-19T09:47:01.489Z,101434.05
2019-03-19T09:49:30.875Z,101430.77
2019-03-19T09:52:00.413Z,101425.75
2019-03-19T09:54:32.155Z,101415.75
2019-03-19T09:57:01.198Z,101426.41
2019-03-19T09:59:51.524Z,101423.92
2019-03-19T10:02:21.116Z,101415.52
2019-03-19T10:04:50.834Z,101419.61
2019-03-19T10:07:20.524Z,101415.49
2019-03-19T10:09:50.136Z,101420.44
2019-03-19T10:12:19.677Z,101424.93
2019-03-19T10:14:49.042Z,101415.35
2019-03-19T10:17:18.577Z,101420.50
2019-03-19T10:19:48.061Z,101420.00
2019-03-19T10:22:17.515Z,101425.56
2019-03-19T10:24:47.055Z,101425.56
2019-03-19T10:27:16.683Z,101426.31
2019-03-19T10:33:01.310Z,101437.70
2019-03-19T10:38:45.995Z,101439.38
2019-03-19T10:41:15.521Z,101437.70
2019-03-19T10:43:45.029Z,101438.68
2019-03-19T10:46:14.993Z,101434.98
2019-03-19T10:48:45.010Z,101435.58
2019-03-19T10:51:14.658Z,101434.11
2019-03-19T10:53:44.206Z,101435.30
2019-03-19T10:56:13.733Z,101427.75
2019-03-19T10:58:43.199Z,101427.83
2019-03-19T11:01:14.342Z,101429.30
2019-03-19T11:03:44.349Z,101421.94
2019-03-19T11:06:14.936Z,101419.41
2019-03-19T11:08:45.352Z,101422.16
2019-03-19T11:11:15.956Z,101424.89
2019-03-19T11:13:46.114Z,101418.11
2019-03-19T11:16:15.571Z,101419.23
2019-03-19T11:18:46.061Z,101422.93
2019-03-19T11:21:16.369Z,101427.45
2019-03-19T11:23:46.528Z,101428.25
2019-03-19T11:26:15.979Z,101435.95
2019-03-19T11:28:45.439Z,101437.69
2019-03-19T11:31:15.256Z,101427.20
2019-03-19T11:33:44.729Z,101430.26
2019-03-19T11:36:14.213Z,101432.94
2019-03-19T11:38:45.471Z,101427.89
2019-03-19T11:41:17.357Z,101431.83
2019-03-19T11:43:48.544Z,101427.08
2019-03-19T11:46:17.975Z,101430.08
2019-03-19T11:48:47.225Z,101430.02
2019-03-19T11:51:18.244Z,101431.08
2019-03-19T11:53:47.868Z,101424.38
2019-03-19T11:56:17.478Z,101417.89
2019-03-19T11:58:47.033Z,101426.94
2019-03-19T12:01:16.614Z,101424.02
2019-03-19T12:03:46.046Z,101426.78
2019-03-19T12:06:15.538Z,101416.69
2019-03-19T12:08:45.105Z,101421.84
2019-03-19T12:11:14.588Z,101420.11
2019-03-19T12:13:44.147Z,101426.48
2019-03-19T12:16:13.603Z,101422.34
2019-03-19T12:18:43.253Z,101421.09
2019-03-19T12:21:12.820Z,101418.33
2019-03-19T12:26:57.343Z,101416.81
2019-03-19T12:29:26.846Z,101410.84
2019-03-19T12:31:56.378Z,101406.19
2019-03-19T12:34:25.954Z,101415.63
2019-03-19T12:36:55.419Z,101409.96
2019-03-19T12:39:24.929Z,101409.05
2019-03-19T12:41:54.565Z,101414.65
2019-03-19T12:44:24.105Z,101413.31
2019-03-19T12:46:53.607Z,101408.96
2019-03-19T12:49:23.078Z,101410.81
2019-03-19T12:51:52.583Z,101414.32
2019-03-19T12:54:22.193Z,101406.09
2019-03-19T12:56:52.008Z,101406.09
2019-03-19T12:59:21.478Z,101404.22
2019-03-19T13:01:50.893Z,101404.23
2019-03-19T13:04:20.558Z,101403.22
2019-03-19T13:06:50.150Z,101399.47
2019-03-19T13:09:19.699Z,101394.14
2019-03-19T13:11:49.173Z,101394.94
2019-03-19T13:14:18.707Z,101397.33
2019-03-19T13:16:49.138Z,101400.85
2019-03-19T13:19:18.669Z,101403.20
2019-03-19T13:21:48.153Z,101394.48
2019-03-19T13:24:57.665Z,101387.05
2019-03-19T13:27:27.164Z,101387.06
2019-03-19T13:29:56.718Z,101383.09
2019-03-19T13:32:28.233Z,101385.02
2019-03-19T13:34:57.220Z,101392.12
2019-03-19T13:37:26.706Z,101388.07
2019-03-19T13:39:56.197Z,101382.11
2019-03-19T13:42:25.689Z,101389.06
2019-03-19T13:44:55.317Z,101375.03
2019-03-19T13:47:24.920Z,101387.73
2019-03-19T13:49:56.041Z,101388.42
2019-03-19T13:52:25.589Z,101379.11
2019-03-19T13:54:55.122Z,101381.90
2019-03-19T13:57:24.611Z,101385.30
2019-03-19T13:59:54.035Z,101384.55
2019-03-19T14:02:23.511Z,101393.30
2019-03-19T14:04:52.874Z,101390.33
2019-03-19T14:07:22.610Z,101385.17
2019-03-19T14:09:52.250Z,101386.57
2019-03-19T14:12:21.728Z,101387.55
2019-03-19T14:14:51.331Z,101385.87
2019-03-19T14:17:20.912Z,101390.84
2019-03-19T14:19:51.405Z,101384.36
2019-03-19T14:22:21.120Z,101385.84
2019-03-19T14:24:50.757Z,101385.97
2019-03-19T14:27:20.420Z,101388.15
2019-03-19T14:29:51.732Z,101387.31
2019-03-19T14:32:21.393Z,101380.36
2019-03-19T14:34:50.927Z,101376.43
2019-03-19T14:37:20.590Z,101376.37
2019-03-19T14:39:50.180Z,101388.74
2019-03-19T14:42:19.849Z,101388.66
2019-03-19T14:44:49.440Z,101391.61
2019-03-19T14:47:19.062Z,101384.41
2019-03-19T14:49:49.919Z,101388.85
2019-03-19T14:52:19.668Z,101396.94
2019-03-19T14:54:49.212Z,101388.30
2019-03-19T14:57:18.717Z,101391.66
2019-03-19T14:59:48.426Z,101390.22
2019-03-19T15:02:17.781Z,101389.09
2019-03-19T15:04:47.265Z,101385.90
2019-03-19T15:07:16.827Z,101389.56
2019-03-19T15:09:46.281Z,101384.75
2019-03-19T15:12:15.832Z,101378.89
2019-03-19T15:14:45.402Z,101385.98
2019-03-19T15:17:14.931Z,101385.59
2019-03-19T15:19:44.492Z,101385.19
2019-03-19T15:22:14.075Z,101382.66
2019-03-19T15:24:45.380Z,101383.90
2019-03-19T15:27:14.894Z,101387.06
2019-03-19T15:29:45.417Z,101384.86
2019-03-19T15:32:14.941Z,101386.58
2019-03-19T15:34:44.405Z,101389.03
2019-03-19T15:37:13.851Z,101388.24
2019-03-19T15:39:43.345Z,101385.41
2019-03-19T15:42:12.797Z,101387.77
2019-03-19T15:44:42.225Z,101385.48
2019-03-19T15:47:11.957Z,101393.12
2019-03-19T15:49:41.470Z,101393.56
2019-03-19T15:52:11.074Z,101391.98
2019-03-19T15:54:40.679Z,101394.73
2019-03-19T15:57:11.716Z,101395.63
2019-03-19T15:59:41.361Z,101401.12
2019-03-19T16:02:11.328Z,101402.67
2019-03-19T16:04:40.976Z,101408.91
2019-03-19T16:07:10.852Z,101408.22
2019-03-19T16:09:42.241Z,101412.55
2019-03-19T16:12:11.836Z,101407.89
2019-03-19T16:14:42.381Z,101411.58
2019-03-19T16:17:12.051Z,101418.19
2019-03-19T16:19:41.772Z,101427.05
2019-03-19T16:22:11.423Z,101431.25
2019-03-19T16:24:40.885Z,101429.68
2019-03-19T16:27:10.623Z,101434.59
2019-03-19T16:29:40.238Z,101435.97
2019-03-19T16:32:09.966Z,101433.76
2019-03-19T16:34:39.590Z,101434.89
2019-03-19T16:37:09.421Z,101439.30
2019-03-19T16:39:38.872Z,101443.27
2019-03-19T16:42:08.488Z,101442.38
2019-03-19T16:44:37.923Z,101448.44
2019-03-19T16:47:07.545Z,101449.28
2019-03-19T16:49:37.155Z,101453.70
2019-03-19T16:52:06.638Z,101453.00
2019-03-19T16:54:36.408Z,101455.09
2019-03-19T16:57:06.207Z,101450.20
2019-03-19T16:59:35.721Z,101456.20
2019-03-19T17:02:05.350Z,101463.08
2019-03-19T17:04:34.845Z,101468.16
2019-03-19T17:07:04.350Z,101464.48
2019-03-19T17:09:33.808Z,101473.55
2019-03-19T17:12:05.866Z,101473.16
2019-03-19T17:14:37.837Z,101474.97
2019-03-19T17:17:09.955Z,101475.00
2019-03-19T17:19:41.932Z,101484.86
2019-03-19T17:22:13.925Z,101487.69
2019-03-19T17:24:45.903Z,101491.91
2019-03-19T17:27:17.871Z,101493.44
2019-03-19T17:29:49.834Z,101499.20
2019-03-19T17:32:21.832Z,101497.91
2019-03-19T17:34:53.807Z,101507.33
2019-03-19T17:37:25.802Z,101507.33
2019-03-19T17:39:57.840Z,101514.25
2019-03-19T17:42:29.860Z,101510.84
2019-03-19T17:45:01.804Z,101512.19
2019-03-19T17:47:33.824Z,101517.69
2019-03-19T17:50:05.217Z,101518.67
2019-03-19T17:52:34.739Z,101522.67
2019-03-19T17:55:06.083Z,101529.85
2019-03-19T17:57:35.781Z,101527.67
2019-03-19T18:00:08.953Z,101537.41
2019-03-19T18:02:38.413Z,101538.34
2019-03-19T18:05:09.719Z,101540.80
2019-03-19T18:07:39.275Z,101550.05
2019-03-19T18:10:11.788Z,101544.02
2019-03-19T18:12:41.627Z,101555.89
2019-03-19T18:15:13.887Z,101553.80
2019-03-19T18:17:43.468Z,101554.54
2019-03-19T18:20:15.653Z,101554.05
2019-03-19T18:22:45.311Z,101553.55
2019-03-19T18:25:17.878Z,101560.52
2019-03-19T18:27:47.506Z,101564.52
2019-03-19T18:30:19.486Z,101559.61
2019-03-19T18:32:49.058Z,101568.21
2019-03-19T18:35:18.731Z,101568.68
2019-03-19T18:37:48.269Z,101575.52
2019-03-19T18:40:18.713Z,101573.44
2019-03-19T18:42:48.301Z,101580.92
2019-03-19T18:45:20.019Z,101579.36
2019-03-19T18:47:49.715Z,101585.84
2019-03-19T18:50:20.268Z,101581.08
2019-03-19T18:52:49.882Z,101584.12
2019-03-19T18:55:19.425Z,101586.19
2019-03-19T18:57:48.957Z,101586.64
2019-03-19T19:00:20.101Z,101584.52
2019-03-19T19:02:51.042Z,101585.72
2019-03-19T19:05:22.862Z,101597.35
2019-03-19T19:07:52.431Z,101598.09
2019-03-19T19:10:21.913Z,101596.66
2019-03-19T19:12:51.506Z,101601.98
2019-03-19T19:15:22.112Z,101603.81
2019-03-19T19:17:51.694Z,101602.97
2019-03-19T19:20:21.409Z,101604.55
2019-03-19T19:22:51.985Z,101609.66
2019-03-19T19:25:23.592Z,101618.69
2019-03-19T19:27:53.162Z,101617.11
2019-03-19T19:30:23.867Z,101616.67
2019-03-19T19:33:01.572Z,101617.30
2019-03-19T19:35:26.193Z,101620.31
2019-03-19T19:37:55.654Z,101628.45
2019-03-19T19:40:25.135Z,101635.97
2019-03-19T19:42:54.685Z,101630.06
2019-03-19T19:45:24.240Z,101632.51
2019-03-19T19:47:53.859Z,101636.78
2019-03-19T19:50:23.941Z,101630.48
2019-03-19T19:52:53.407Z,101629.42
2019-03-19T19:55:22.957Z,101631.83
2019-03-19T19:57:52.537Z,101636.78
2019-03-19T20:00:23.149Z,101633.64
2019-03-19T20:02:52.741Z,101641.20
2019-03-19T20:05:22.336Z,101634.55
2019-03-19T20:07:51.807Z,101634.41
2019-03-19T20:10:23.616Z,101640.63
2019-03-19T20:12:53.104Z,101642.67
2019-03-19T20:15:23.378Z,101642.44
2019-03-19T20:17:52.853Z,101647.55
2019-03-19T20:20:24.760Z,101654.56
2019-03-19T20:22:54.289Z,101658.03
2019-03-19T20:25:23.781Z,101661.53
2019-03-19T20:27:52.978Z,101662.52
2019-03-19T20:30:24.516Z,101664.37
2019-03-19T20:32:54.023Z,101666.94
2019-03-19T20:35:23.677Z,101668.41
2019-03-19T20:37:55.207Z,101672.89
2019-03-19T20:40:24.688Z,101672.27
2019-03-19T20:42:54.208Z,101671.91
2019-03-19T20:45:25.311Z,101670.09
2019-03-19T20:47:55.807Z,101673.98
2019-03-19T20:50:28.081Z,101681.38
2019-03-19T20:52:57.651Z,101687.42
2019-03-19T20:55:27.063Z,101681.88
2019-03-19T20:57:56.536Z,101689.14
2019-03-19T21:00:25.917Z,101686.35
2019-03-19T21:02:55.605Z,101695.77
2019-03-19T21:05:25.177Z,101699.25
2019-03-19T21:07:54.918Z,101699.12
2019-03-19T21:10:25.173Z,101704.09
2019-03-19T21:12:54.807Z,101713.28
2019-03-19T21:15:30.461Z,101723.35
2019-03-19T21:17:59.820Z,101722.73
2019-03-19T21:20:28.997Z,101728.70
2019-03-19T21:22:58.287Z,101732.32
2019-03-19T21:25:27.897Z,101735.57
2019-03-19T21:27:57.381Z,101740.64
2019-03-19T21:30:27.062Z,101738.73
2019-03-19T21:32:56.580Z,101738.92
2019-03-19T21:35:26.077Z,101736.81
2019-03-19T21:37:55.842Z,101737.98
2019-03-19T21:40:25.974Z,101738.50
2019-03-19T21:42:55.624Z,101742.73
2019-03-19T21:45:25.327Z,101744.63
2019-03-19T21:47:54.918Z,101743.94
2019-03-19T21:50:25.494Z,101743.76
2019-03-19T21:52:54.978Z,101748.98
2019-03-19T21:55:24.578Z,101743.30
2019-03-19T21:57:53.861Z,101742.52
2019-03-19T22:00:25.646Z,101753.36
2019-03-19T22:02:55.260Z,101746.14
2019-03-19T22:05:24.855Z,101751.13
2019-03-19T22:07:54.139Z,101754.69
2019-03-19T22:10:23.592Z,101757.44
2019-03-19T22:12:53.157Z,101758.40
2019-03-19T22:15:24.813Z,101758.40
2019-03-19T22:17:54.336Z,101761.17
2019-03-19T22:20:25.757Z,101758.48
2019-03-19T22:22:55.049Z,101764.44
2019-03-19T22:25:24.578Z,101764.08
2019-03-19T22:27:54.282Z,101768.42
2019-03-19T22:30:23.920Z,101770.12
2019-03-19T22:32:53.529Z,101776.59
2019-03-19T22:35:25.062Z,101779.52
2019-03-19T22:37:54.565Z,101781.86
2019-03-19T22:40:24.036Z,101777.39
2019-03-19T22:42:53.490Z,101783.54
2019-03-19T22:45:23.039Z,101781.63
2019-03-19T22:47:52.573Z,101784.87
2019-03-19T22:50:22.219Z,101784.09
2019-03-19T22:52:51.819Z,101789.41
2019-03-19T22:55:29.066Z,101793.63
2019-03-19T22:57:53.168Z,101795.37
2019-03-19T23:00:26.002Z,101796.39
2019-03-19T23:02:55.505Z,101806.42
2019-03-19T23:05:25.144Z,101806.48
2019-03-19T23:07:54.665Z,101804.11
2019-03-19T23:10:24.237Z,101810.14
2019-03-19T23:12:53.859Z,101814.25
2019-03-19T23:15:23.488Z,101809.63
2019-03-19T23:17:53.116Z,101812.98
2019-03-19T23:20:22.639Z,101816.92
2019-03-19T23:22:52.263Z,101826.30
2019-03-19T23:25:21.853Z,101824.38
2019-03-19T23:27:51.575Z,101821.95
2019-03-19T23:30:22.912Z,101814.62
2019-03-19T23:32:52.533Z,101823.90
2019-03-19T23:35:22.124Z,101825.15
2019-03-19T23:37:51.602Z,101826.33
2019-03-19T23:40:21.805Z,101835.61
2019-03-19T23:42:51.525Z,101838.12
2019-03-19T23:45:20.914Z,101829.36
2019-03-19T23:47:50.600Z,101827.36
2019-03-19T23:50:21.114Z,101838.12
2019-03-19T23:52:50.763Z,101838.48
2019-03-19T23:55:20.344Z,101837.55
2019-03-19T23:57:49.967Z,101840.06
